sensor_id;sensor_type;location;lat;lon;timestamp;P1;durP1;ratioP1;P2;durP2;ratioP2
35891;SDS011;21993;42.672;23.296;2023-02-28T00:00:50;19.40;;;13.13;;
35891;SDS011;21993;42.672;23.296;2023-02-28T00:03:15;24.33;;;14.20;;
35891;SDS011;21993;42.672;23.296;2023-02-28T00:05:40;21.03;;;13.40;;
35891;SDS011;21993;42.672;23.296;2023-02-28T00:08:06;22.10;;;13.13;;
35891;SDS011;21993;42.672;23.296;2023-02-28T00:10:32;20.70;;;10.90;;
35891;SDS011;21993;42.672;23.296;2023-02-28T00:13:01;20.43;;;10.57;;
35891;SDS011;21993;42.672;23.296;2023-02-28T00:15:30;21.60;;;11.60;;
35891;SDS011;21993;42.672;23.296;2023-02-28T00:17:56;18.70;;;11.40;;
35891;SDS011;21993;42.672;23.296;2023-02-28T00:20:22;18.10;;;10.40;;
35891;SDS011;21993;42.672;23.296;2023-02-28T00:22:49;15.83;;;10.70;;
35891;SDS011;21993;42.672;23.296;2023-02-28T00:25:19;17.50;;;10.77;;
35891;SDS011;21993;42.672;23.296;2023-02-28T00:27:47;17.47;;;9.43;;
35891;SDS011;21993;42.672;23.296;2023-02-28T00:30:13;20.17;;;11.37;;
35891;SDS011;21993;42.672;23.296;2023-02-28T00:32:41;19.00;;;12.03;;
35891;SDS011;21993;42.672;23.296;2023-02-28T00:35:06;21.03;;;11.23;;
35891;SDS011;21993;42.672;23.296;2023-02-28T00:37:33;16.10;;;10.57;;
35891;SDS011;21993;42.672;23.296;2023-02-28T00:39:59;17.30;;;11.10;;
35891;SDS011;21993;42.672;23.296;2023-02-28T00:42:24;16.40;;;11.03;;
35891;SDS011;21993;42.672;23.296;2023-02-28T00:44:50;17.13;;;10.67;;
35891;SDS011;21993;42.672;23.296;2023-02-28T00:47:16;18.93;;;11.17;;
35891;SDS011;21993;42.672;23.296;2023-02-28T00:49:41;18.53;;;10.70;;
35891;SDS011;21993;42.672;23.296;2023-02-28T00:52:07;17.90;;;11.20;;
35891;SDS011;21993;42.672;23.296;2023-02-28T00:54:32;22.37;;;11.73;;
35891;SDS011;21993;42.672;23.296;2023-02-28T00:56:58;19.30;;;11.20;;
35891;SDS011;21993;42.672;23.296;2023-02-28T00:59:23;19.07;;;11.50;;
35891;SDS011;21993;42.672;23.296;2023-02-28T01:01:49;20.13;;;11.07;;
35891;SDS011;21993;42.672;23.296;2023-02-28T01:04:14;19.00;;;10.63;;
35891;SDS011;21993;42.672;23.296;2023-02-28T01:06:39;19.27;;;10.87;;
35891;SDS011;21993;42.672;23.296;2023-02-28T01:09:05;17.40;;;10.37;;
35891;SDS011;21993;42.672;23.296;2023-02-28T01:11:32;20.83;;;11.50;;
35891;SDS011;21993;42.672;23.296;2023-02-28T01:13:57;18.97;;;10.73;;
35891;SDS011;21993;42.672;23.296;2023-02-28T01:16:24;20.47;;;10.50;;
35891;SDS011;21993;42.672;23.296;2023-02-28T01:18:49;23.60;;;13.63;;
35891;SDS011;21993;42.672;23.296;2023-02-28T01:21:15;26.57;;;14.73;;
35891;SDS011;21993;42.672;23.296;2023-02-28T01:23:42;27.83;;;16.83;;
35891;SDS011;21993;42.672;23.296;2023-02-28T01:26:10;30.87;;;17.90;;
35891;SDS011;21993;42.672;23.296;2023-02-28T01:28:37;31.97;;;17.90;;
35891;SDS011;21993;42.672;23.296;2023-02-28T01:31:03;30.77;;;17.70;;
35891;SDS011;21993;42.672;23.296;2023-02-28T01:33:28;36.47;;;19.43;;
35891;SDS011;21993;42.672;23.296;2023-02-28T01:36:01;31.30;;;18.57;;
35891;SDS011;21993;42.672;23.296;2023-02-28T01:38:31;29.80;;;17.83;;
35891;SDS011;21993;42.672;23.296;2023-02-28T01:40:57;35.43;;;19.53;;
35891;SDS011;21993;42.672;23.296;2023-02-28T01:43:24;33.43;;;18.30;;
35891;SDS011;21993;42.672;23.296;2023-02-28T01:45:52;29.03;;;17.80;;
35891;SDS011;21993;42.672;23.296;2023-02-28T01:48:19;37.80;;;19.67;;
35891;SDS011;21993;42.672;23.296;2023-02-28T01:50:47;35.27;;;18.77;;
35891;SDS011;21993;42.672;23.296;2023-02-28T01:53:15;33.47;;;18.87;;
35891;SDS011;21993;42.672;23.296;2023-02-28T01:55:45;30.27;;;16.83;;
35891;SDS011;21993;42.672;23.296;2023-02-28T01:58:13;32.40;;;17.50;;
35891;SDS011;21993;42.672;23.296;2023-02-28T02:00:39;33.23;;;17.47;;
35891;SDS011;21993;42.672;23.296;2023-02-28T02:03:11;31.97;;;17.60;;
35891;SDS011;21993;42.672;23.296;2023-02-28T02:05:39;32.87;;;17.57;;
35891;SDS011;21993;42.672;23.296;2023-02-28T02:08:12;35.13;;;17.90;;
35891;SDS011;21993;42.672;23.296;2023-02-28T02:10:45;30.87;;;17.63;;
35891;SDS011;21993;42.672;23.296;2023-02-28T02:33:26;41.67;;;20.83;;
35891;SDS011;21993;42.672;23.296;2023-02-28T02:35:54;41.23;;;20.17;;
35891;SDS011;21993;42.672;23.296;2023-02-28T02:38:31;44.33;;;21.27;;
35891;SDS011;21993;42.672;23.296;2023-02-28T02:43:39;37.27;;;19.20;;
35891;SDS011;21993;42.672;23.296;2023-02-28T02:46:15;46.67;;;21.43;;
35891;SDS011;21993;42.672;23.296;2023-02-28T02:48:41;48.67;;;22.53;;
35891;SDS011;21993;42.672;23.296;2023-02-28T02:51:16;45.10;;;23.47;;
35891;SDS011;21993;42.672;23.296;2023-02-28T02:53:53;45.33;;;21.57;;
35891;SDS011;21993;42.672;23.296;2023-02-28T02:56:24;40.67;;;20.80;;
35891;SDS011;21993;42.672;23.296;2023-02-28T02:58:53;43.10;;;21.63;;
35891;SDS011;21993;42.672;23.296;2023-02-28T03:01:24;42.50;;;21.43;;
35891;SDS011;21993;42.672;23.296;2023-02-28T03:04:10;48.20;;;20.77;;
35891;SDS011;21993;42.672;23.296;2023-02-28T03:06:39;46.07;;;21.47;;
35891;SDS011;21993;42.672;23.296;2023-02-28T03:09:04;46.07;;;21.63;;
35891;SDS011;21993;42.672;23.296;2023-02-28T03:11:30;58.33;;;21.53;;
35891;SDS011;21993;42.672;23.296;2023-02-28T03:24:32;47.43;;;21.47;;
35891;SDS011;21993;42.672;23.296;2023-02-28T03:27:03;49.60;;;22.77;;
35891;SDS011;21993;42.672;23.296;2023-02-28T03:29:38;46.10;;;20.43;;
35891;SDS011;21993;42.672;23.296;2023-02-28T03:32:11;39.77;;;20.10;;
35891;SDS011;21993;42.672;23.296;2023-02-28T03:34:47;45.77;;;20.73;;
35891;SDS011;21993;42.672;23.296;2023-02-28T03:37:19;49.23;;;23.80;;
35891;SDS011;21993;42.672;23.296;2023-02-28T03:42:39;43.63;;;22.40;;
35891;SDS011;21993;42.672;23.296;2023-02-28T03:45:13;54.03;;;24.43;;
35891;SDS011;21993;42.672;23.296;2023-02-28T03:47:46;52.53;;;23.97;;
35891;SDS011;21993;42.672;23.296;2023-02-28T03:50:29;56.23;;;23.13;;
35891;SDS011;21993;42.672;23.296;2023-02-28T03:53:17;53.17;;;23.80;;
35891;SDS011;21993;42.672;23.296;2023-02-28T03:55:50;47.30;;;21.97;;
35891;SDS011;21993;42.672;23.296;2023-02-28T03:58:40;47.17;;;23.37;;
35891;SDS011;21993;42.672;23.296;2023-02-28T04:01:15;45.53;;;22.33;;
35891;SDS011;21993;42.672;23.296;2023-02-28T04:03:45;47.07;;;22.63;;
35891;SDS011;21993;42.672;23.296;2023-02-28T04:06:21;42.90;;;21.47;;
35891;SDS011;21993;42.672;23.296;2023-02-28T04:08:47;32.07;;;17.10;;
35891;SDS011;21993;42.672;23.296;2023-02-28T04:13:41;42.93;;;19.37;;
35891;SDS011;21993;42.672;23.296;2023-02-28T04:16:08;44.87;;;20.43;;
35891;SDS011;21993;42.672;23.296;2023-02-28T04:18:37;35.67;;;18.97;;
35891;SDS011;21993;42.672;23.296;2023-02-28T04:21:05;41.87;;;19.23;;
35891;SDS011;21993;42.672;23.296;2023-02-28T04:23:31;41.13;;;20.17;;
35891;SDS011;21993;42.672;23.296;2023-02-28T04:25:56;41.77;;;20.60;;
35891;SDS011;21993;42.672;23.296;2023-02-28T04:28:22;39.50;;;21.40;;
35891;SDS011;21993;42.672;23.296;2023-02-28T04:30:47;35.57;;;19.57;;
35891;SDS011;21993;42.672;23.296;2023-02-28T04:33:18;42.20;;;19.40;;
35891;SDS011;21993;42.672;23.296;2023-02-28T04:35:44;39.87;;;20.63;;
35891;SDS011;21993;42.672;23.296;2023-02-28T04:38:09;31.40;;;18.03;;
35891;SDS011;21993;42.672;23.296;2023-02-28T04:40:35;35.67;;;16.53;;
35891;SDS011;21993;42.672;23.296;2023-02-28T04:43:00;35.53;;;19.07;;
35891;SDS011;21993;42.672;23.296;2023-02-28T04:45:26;37.83;;;18.93;;
35891;SDS011;21993;42.672;23.296;2023-02-28T04:47:54;39.47;;;18.70;;
35891;SDS011;21993;42.672;23.296;2023-02-28T04:50:20;41.00;;;20.43;;
35891;SDS011;21993;42.672;23.296;2023-02-28T04:52:45;38.53;;;19.10;;
35891;SDS011;21993;42.672;23.296;2023-02-28T04:55:11;41.13;;;19.13;;
35891;SDS011;21993;42.672;23.296;2023-02-28T04:57:36;33.93;;;18.60;;
35891;SDS011;21993;42.672;23.296;2023-02-28T05:00:02;39.83;;;18.00;;
35891;SDS011;21993;42.672;23.296;2023-02-28T05:02:33;39.10;;;19.10;;
35891;SDS011;21993;42.672;23.296;2023-02-28T05:05:00;36.03;;;18.50;;
35891;SDS011;21993;42.672;23.296;2023-02-28T05:07:25;42.30;;;19.03;;
35891;SDS011;21993;42.672;23.296;2023-02-28T05:09:51;38.33;;;19.03;;
35891;SDS011;21993;42.672;23.296;2023-02-28T05:12:16;38.77;;;17.97;;
35891;SDS011;21993;42.672;23.296;2023-02-28T05:14:41;37.03;;;18.37;;
35891;SDS011;21993;42.672;23.296;2023-02-28T05:17:07;34.67;;;18.13;;
35891;SDS011;21993;42.672;23.296;2023-02-28T05:19:33;34.13;;;17.83;;
35891;SDS011;21993;42.672;23.296;2023-02-28T05:21:59;34.23;;;16.70;;
35891;SDS011;21993;42.672;23.296;2023-02-28T05:24:24;37.20;;;17.90;;
35891;SDS011;21993;42.672;23.296;2023-02-28T05:26:51;35.77;;;17.57;;
35891;SDS011;21993;42.672;23.296;2023-02-28T05:29:17;33.50;;;17.77;;
35891;SDS011;21993;42.672;23.296;2023-02-28T05:31:43;42.37;;;22.20;;
35891;SDS011;21993;42.672;23.296;2023-02-28T05:34:08;41.23;;;18.87;;
35891;SDS011;21993;42.672;23.296;2023-02-28T05:36:36;36.47;;;18.73;;
35891;SDS011;21993;42.672;23.296;2023-02-28T05:39:02;35.93;;;17.97;;
35891;SDS011;21993;42.672;23.296;2023-02-28T05:41:29;31.67;;;17.63;;
35891;SDS011;21993;42.672;23.296;2023-02-28T05:43:54;35.43;;;17.73;;
35891;SDS011;21993;42.672;23.296;2023-02-28T05:46:20;32.93;;;17.80;;
35891;SDS011;21993;42.672;23.296;2023-02-28T05:48:46;29.47;;;15.97;;
35891;SDS011;21993;42.672;23.296;2023-02-28T05:51:12;30.20;;;16.60;;
35891;SDS011;21993;42.672;23.296;2023-02-28T05:53:38;31.53;;;16.97;;
35891;SDS011;21993;42.672;23.296;2023-02-28T05:56:04;29.63;;;16.17;;
35891;SDS011;21993;42.672;23.296;2023-02-28T05:58:30;32.73;;;16.60;;
35891;SDS011;21993;42.672;23.296;2023-02-28T06:00:59;29.83;;;16.90;;
35891;SDS011;21993;42.672;23.296;2023-02-28T06:03:25;37.73;;;17.43;;
35891;SDS011;21993;42.672;23.296;2023-02-28T06:05:51;32.37;;;17.33;;
35891;SDS011;21993;42.672;23.296;2023-02-28T06:08:17;35.70;;;18.03;;
35891;SDS011;21993;42.672;23.296;2023-02-28T06:10:43;33.97;;;16.63;;
35891;SDS011;21993;42.672;23.296;2023-02-28T06:13:09;36.77;;;17.53;;
35891;SDS011;21993;42.672;23.296;2023-02-28T06:15:34;38.30;;;20.07;;
35891;SDS011;21993;42.672;23.296;2023-02-28T06:17:59;39.80;;;19.37;;
35891;SDS011;21993;42.672;23.296;2023-02-28T06:20:26;41.90;;;17.67;;
35891;SDS011;21993;42.672;23.296;2023-02-28T06:22:55;35.77;;;18.53;;
35891;SDS011;21993;42.672;23.296;2023-02-28T06:25:23;42.80;;;19.37;;
35891;SDS011;21993;42.672;23.296;2023-02-28T06:27:49;36.60;;;18.60;;
35891;SDS011;21993;42.672;23.296;2023-02-28T06:30:14;36.50;;;20.13;;
35891;SDS011;21993;42.672;23.296;2023-02-28T06:32:40;33.33;;;18.00;;
35891;SDS011;21993;42.672;23.296;2023-02-28T06:35:05;36.87;;;19.37;;
35891;SDS011;21993;42.672;23.296;2023-02-28T06:37:31;42.30;;;19.83;;
35891;SDS011;21993;42.672;23.296;2023-02-28T06:39:57;41.83;;;20.43;;
35891;SDS011;21993;42.672;23.296;2023-02-28T06:42:23;44.43;;;20.07;;
35891;SDS011;21993;42.672;23.296;2023-02-28T06:44:56;44.37;;;19.87;;
35891;SDS011;21993;42.672;23.296;2023-02-28T06:47:22;36.53;;;20.23;;
35891;SDS011;21993;42.672;23.296;2023-02-28T06:49:48;36.90;;;20.33;;
35891;SDS011;21993;42.672;23.296;2023-02-28T06:52:14;39.73;;;20.90;;
35891;SDS011;21993;42.672;23.296;2023-02-28T06:54:40;43.67;;;21.13;;
35891;SDS011;21993;42.672;23.296;2023-02-28T06:57:06;45.17;;;20.87;;
35891;SDS011;21993;42.672;23.296;2023-02-28T06:59:31;40.80;;;21.23;;
35891;SDS011;21993;42.672;23.296;2023-02-28T07:01:57;44.63;;;21.60;;
35891;SDS011;21993;42.672;23.296;2023-02-28T07:04:22;46.70;;;21.40;;
35891;SDS011;21993;42.672;23.296;2023-02-28T07:06:48;44.73;;;21.60;;
35891;SDS011;21993;42.672;23.296;2023-02-28T07:09:13;45.00;;;22.87;;
35891;SDS011;21993;42.672;23.296;2023-02-28T07:11:39;40.77;;;22.03;;
35891;SDS011;21993;42.672;23.296;2023-02-28T07:14:05;42.20;;;22.93;;
35891;SDS011;21993;42.672;23.296;2023-02-28T07:16:31;38.20;;;21.57;;
35891;SDS011;21993;42.672;23.296;2023-02-28T07:18:56;39.67;;;21.57;;
35891;SDS011;21993;42.672;23.296;2023-02-28T07:21:22;38.33;;;20.87;;
35891;SDS011;21993;42.672;23.296;2023-02-28T07:23:47;37.83;;;20.43;;
35891;SDS011;21993;42.672;23.296;2023-02-28T07:26:16;43.67;;;22.93;;
35891;SDS011;21993;42.672;23.296;2023-02-28T07:28:44;44.70;;;22.93;;
35891;SDS011;21993;42.672;23.296;2023-02-28T07:31:11;45.57;;;23.53;;
35891;SDS011;21993;42.672;23.296;2023-02-28T07:33:39;41.60;;;22.27;;
35891;SDS011;21993;42.672;23.296;2023-02-28T07:36:05;42.53;;;22.17;;
35891;SDS011;21993;42.672;23.296;2023-02-28T07:38:34;40.57;;;22.13;;
35891;SDS011;21993;42.672;23.296;2023-02-28T07:41:00;43.30;;;22.03;;
35891;SDS011;21993;42.672;23.296;2023-02-28T07:43:29;36.97;;;22.30;;
35891;SDS011;21993;42.672;23.296;2023-02-28T07:45:55;43.07;;;22.07;;
35891;SDS011;21993;42.672;23.296;2023-02-28T07:48:20;44.90;;;21.40;;
35891;SDS011;21993;42.672;23.296;2023-02-28T07:50:53;40.73;;;21.47;;
35891;SDS011;21993;42.672;23.296;2023-02-28T07:53:20;42.10;;;22.30;;
35891;SDS011;21993;42.672;23.296;2023-02-28T07:55:45;44.17;;;22.17;;
35891;SDS011;21993;42.672;23.296;2023-02-28T07:58:11;35.77;;;21.07;;
35891;SDS011;21993;42.672;23.296;2023-02-28T08:00:36;40.07;;;20.83;;
35891;SDS011;21993;42.672;23.296;2023-02-28T08:03:01;38.47;;;21.67;;
35891;SDS011;21993;42.672;23.296;2023-02-28T08:05:27;50.73;;;21.93;;
35891;SDS011;21993;42.672;23.296;2023-02-28T08:07:52;51.63;;;26.20;;
35891;SDS011;21993;42.672;23.296;2023-02-28T08:10:18;45.60;;;23.63;;
35891;SDS011;21993;42.672;23.296;2023-02-28T08:12:43;38.13;;;21.27;;
35891;SDS011;21993;42.672;23.296;2023-02-28T08:15:09;44.13;;;22.50;;
35891;SDS011;21993;42.672;23.296;2023-02-28T08:17:35;39.93;;;20.80;;
35891;SDS011;21993;42.672;23.296;2023-02-28T08:20:00;38.70;;;21.57;;
35891;SDS011;21993;42.672;23.296;2023-02-28T08:22:26;46.20;;;20.93;;
35891;SDS011;21993;42.672;23.296;2023-02-28T08:24:51;38.03;;;21.00;;
35891;SDS011;21993;42.672;23.296;2023-02-28T08:27:17;40.03;;;20.47;;
35891;SDS011;21993;42.672;23.296;2023-02-28T08:29:42;43.70;;;20.83;;
35891;SDS011;21993;42.672;23.296;2023-02-28T08:32:08;43.03;;;23.30;;
35891;SDS011;21993;42.672;23.296;2023-02-28T08:34:33;40.43;;;22.03;;
35891;SDS011;21993;42.672;23.296;2023-02-28T08:36:58;43.77;;;22.73;;
35891;SDS011;21993;42.672;23.296;2023-02-28T08:39:24;51.80;;;27.00;;
35891;SDS011;21993;42.672;23.296;2023-02-28T08:41:49;61.00;;;29.90;;
35891;SDS011;21993;42.672;23.296;2023-02-28T08:44:15;52.33;;;24.30;;
35891;SDS011;21993;42.672;23.296;2023-02-28T08:46:40;64.47;;;30.77;;
35891;SDS011;21993;42.672;23.296;2023-02-28T08:49:05;61.83;;;29.90;;
35891;SDS011;21993;42.672;23.296;2023-02-28T08:51:32;64.47;;;31.27;;
35891;SDS011;21993;42.672;23.296;2023-02-28T08:53:58;51.10;;;30.73;;
35891;SDS011;21993;42.672;23.296;2023-02-28T08:56:25;59.57;;;32.40;;
35891;SDS011;21993;42.672;23.296;2023-02-28T08:58:51;58.00;;;31.57;;
35891;SDS011;21993;42.672;23.296;2023-02-28T09:01:25;63.07;;;30.97;;
35891;SDS011;21993;42.672;23.296;2023-02-28T09:03:52;66.17;;;30.73;;
35891;SDS011;21993;42.672;23.296;2023-02-28T09:06:19;58.00;;;29.40;;
35891;SDS011;21993;42.672;23.296;2023-02-28T09:08:46;59.87;;;30.47;;
35891;SDS011;21993;42.672;23.296;2023-02-28T09:11:11;63.07;;;30.57;;
35891;SDS011;21993;42.672;23.296;2023-02-28T09:13:37;52.97;;;29.03;;
35891;SDS011;21993;42.672;23.296;2023-02-28T09:16:04;58.93;;;29.90;;
35891;SDS011;21993;42.672;23.296;2023-02-28T09:18:30;51.67;;;27.43;;
35891;SDS011;21993;42.672;23.296;2023-02-28T09:20:56;60.33;;;27.83;;
35891;SDS011;21993;42.672;23.296;2023-02-28T09:23:22;56.80;;;29.13;;
35891;SDS011;21993;42.672;23.296;2023-02-28T09:25:53;52.77;;;27.23;;
35891;SDS011;21993;42.672;23.296;2023-02-28T09:28:20;56.63;;;28.83;;
35891;SDS011;21993;42.672;23.296;2023-02-28T09:30:47;55.87;;;28.70;;
35891;SDS011;21993;42.672;23.296;2023-02-28T09:33:14;62.93;;;28.83;;
35891;SDS011;21993;42.672;23.296;2023-02-28T09:35:41;61.97;;;28.17;;
35891;SDS011;21993;42.672;23.296;2023-02-28T09:38:07;50.10;;;26.73;;
35891;SDS011;21993;42.672;23.296;2023-02-28T09:40:37;61.53;;;28.30;;
35891;SDS011;21993;42.672;23.296;2023-02-28T09:43:15;58.90;;;27.83;;
35891;SDS011;21993;42.672;23.296;2023-02-28T09:45:42;54.70;;;27.13;;
35891;SDS011;21993;42.672;23.296;2023-02-28T09:48:18;56.93;;;26.33;;
35891;SDS011;21993;42.672;23.296;2023-02-28T09:50:52;56.43;;;26.67;;
35891;SDS011;21993;42.672;23.296;2023-02-28T09:53:26;56.70;;;27.93;;
35891;SDS011;21993;42.672;23.296;2023-02-28T09:55:59;56.70;;;30.67;;
35891;SDS011;21993;42.672;23.296;2023-02-28T10:04:04;75.83;;;36.27;;
35891;SDS011;21993;42.672;23.296;2023-02-28T10:06:44;75.83;;;36.80;;
35891;SDS011;21993;42.672;23.296;2023-02-28T10:09:15;76.07;;;37.83;;
35891;SDS011;21993;42.672;23.296;2023-02-28T10:11:45;71.37;;;36.13;;
35891;SDS011;21993;42.672;23.296;2023-02-28T10:14:15;69.57;;;35.60;;
35891;SDS011;21993;42.672;23.296;2023-02-28T10:16:45;69.90;;;34.70;;
35891;SDS011;21993;42.672;23.296;2023-02-28T10:19:20;53.10;;;27.57;;
35891;SDS011;21993;42.672;23.296;2023-02-28T10:21:57;49.20;;;25.33;;
35891;SDS011;21993;42.672;23.296;2023-02-28T10:24:37;42.53;;;18.90;;
35891;SDS011;21993;42.672;23.296;2023-02-28T10:27:13;44.70;;;20.53;;
35891;SDS011;21993;42.672;23.296;2023-02-28T10:29:44;32.90;;;17.47;;
35891;SDS011;21993;42.672;23.296;2023-02-28T10:32:12;41.00;;;18.87;;
35891;SDS011;21993;42.672;23.296;2023-02-28T10:34:41;35.77;;;16.50;;
35891;SDS011;21993;42.672;23.296;2023-02-28T10:37:07;25.47;;;12.80;;
35891;SDS011;21993;42.672;23.296;2023-02-28T10:42:04;23.03;;;11.40;;
35891;SDS011;21993;42.672;23.296;2023-02-28T10:44:41;27.87;;;14.13;;
35891;SDS011;21993;42.672;23.296;2023-02-28T10:47:12;17.83;;;10.80;;
35891;SDS011;21993;42.672;23.296;2023-02-28T10:49:45;22.93;;;11.83;;
35891;SDS011;21993;42.672;23.296;2023-02-28T10:52:13;24.10;;;12.23;;
35891;SDS011;21993;42.672;23.296;2023-02-28T10:57:48;26.17;;;12.33;;
35891;SDS011;21993;42.672;23.296;2023-02-28T11:00:19;23.90;;;12.93;;
35891;SDS011;21993;42.672;23.296;2023-02-28T11:02:45;24.57;;;11.57;;
35891;SDS011;21993;42.672;23.296;2023-02-28T11:05:25;23.23;;;11.77;;
35891;SDS011;21993;42.672;23.296;2023-02-28T11:07:55;23.43;;;11.73;;
35891;SDS011;21993;42.672;23.296;2023-02-28T11:10:25;25.87;;;11.53;;
35891;SDS011;21993;42.672;23.296;2023-02-28T11:12:56;20.70;;;10.87;;
35891;SDS011;21993;42.672;23.296;2023-02-28T11:15:24;19.13;;;10.40;;
35891;SDS011;21993;42.672;23.296;2023-02-28T11:20:47;18.17;;;10.60;;
35891;SDS011;21993;42.672;23.296;2023-02-28T11:23:15;25.00;;;10.83;;
35891;SDS011;21993;42.672;23.296;2023-02-28T11:25:45;23.27;;;11.30;;
35891;SDS011;21993;42.672;23.296;2023-02-28T11:28:28;19.17;;;11.53;;
35891;SDS011;21993;42.672;23.296;2023-02-28T11:31:15;24.23;;;11.87;;
35891;SDS011;21993;42.672;23.296;2023-02-28T11:38:50;19.47;;;10.63;;
35891;SDS011;21993;42.672;23.296;2023-02-28T11:55:34;23.13;;;11.00;;
35891;SDS011;21993;42.672;23.296;2023-02-28T12:15:01;25.97;;;11.50;;
35891;SDS011;21993;42.672;23.296;2023-02-28T12:17:43;26.87;;;12.37;;
35891;SDS011;21993;42.672;23.296;2023-02-28T12:28:49;25.67;;;12.40;;
35891;SDS011;21993;42.672;23.296;2023-02-28T12:33:53;26.13;;;12.83;;
35891;SDS011;21993;42.672;23.296;2023-02-28T12:36:32;24.87;;;10.70;;
35891;SDS011;21993;42.672;23.296;2023-02-28T12:39:04;21.67;;;10.73;;
35891;SDS011;21993;42.672;23.296;2023-02-28T12:44:20;26.00;;;11.20;;
35891;SDS011;21993;42.672;23.296;2023-02-28T12:46:53;26.20;;;13.70;;
35891;SDS011;21993;42.672;23.296;2023-02-28T12:49:39;25.10;;;12.30;;
35891;SDS011;21993;42.672;23.296;2023-02-28T12:52:28;26.20;;;11.80;;
35891;SDS011;21993;42.672;23.296;2023-02-28T12:55:04;23.20;;;12.23;;
35891;SDS011;21993;42.672;23.296;2023-02-28T12:57:35;20.73;;;12.33;;
35891;SDS011;21993;42.672;23.296;2023-02-28T13:00:12;24.33;;;11.63;;
35891;SDS011;21993;42.672;23.296;2023-02-28T13:02:44;17.67;;;10.57;;
35891;SDS011;21993;42.672;23.296;2023-02-28T13:10:46;20.23;;;10.50;;
35891;SDS011;21993;42.672;23.296;2023-02-28T13:13:20;23.53;;;11.30;;
35891;SDS011;21993;42.672;23.296;2023-02-28T13:18:43;23.17;;;11.00;;
35891;SDS011;21993;42.672;23.296;2023-02-28T13:21:27;23.30;;;11.50;;
35891;SDS011;21993;42.672;23.296;2023-02-28T13:24:00;22.83;;;10.93;;
35891;SDS011;21993;42.672;23.296;2023-02-28T13:31:30;25.63;;;11.97;;
35891;SDS011;21993;42.672;23.296;2023-02-28T13:34:05;23.27;;;9.37;;
35891;SDS011;21993;42.672;23.296;2023-02-28T13:36:37;20.10;;;10.37;;
35891;SDS011;21993;42.672;23.296;2023-02-28T13:39:03;23.47;;;11.97;;
35891;SDS011;21993;42.672;23.296;2023-02-28T13:47:44;17.27;;;9.90;;
35891;SDS011;21993;42.672;23.296;2023-02-28T14:03:08;19.37;;;10.70;;
35891;SDS011;21993;42.672;23.296;2023-02-28T14:05:42;22.37;;;9.83;;
35891;SDS011;21993;42.672;23.296;2023-02-28T14:08:16;26.37;;;9.67;;
35891;SDS011;21993;42.672;23.296;2023-02-28T14:10:50;18.83;;;9.80;;
35891;SDS011;21993;42.672;23.296;2023-02-28T14:13:42;20.00;;;8.53;;
35891;SDS011;21993;42.672;23.296;2023-02-28T14:16:54;22.60;;;9.47;;
35891;SDS011;21993;42.672;23.296;2023-02-28T14:19:02;46.03;;;19.57;;
35891;SDS011;21993;42.672;23.296;2023-02-28T14:21:50;19.47;;;9.27;;
35891;SDS011;21993;42.672;23.296;2023-02-28T14:37:52;16.93;;;9.57;;
35891;SDS011;21993;42.672;23.296;2023-02-28T14:42:58;21.80;;;10.10;;
35891;SDS011;21993;42.672;23.296;2023-02-28T14:45:27;25.53;;;11.03;;
35891;SDS011;21993;42.672;23.296;2023-02-28T14:47:55;19.67;;;10.07;;
35891;SDS011;21993;42.672;23.296;2023-02-28T14:50:32;21.20;;;10.40;;
35891;SDS011;21993;42.672;23.296;2023-02-28T14:53:00;24.03;;;9.77;;
35891;SDS011;21993;42.672;23.296;2023-02-28T14:55:30;16.13;;;8.63;;
35891;SDS011;21993;42.672;23.296;2023-02-28T14:58:03;19.97;;;9.37;;
35891;SDS011;21993;42.672;23.296;2023-02-28T15:00:36;18.47;;;8.57;;
35891;SDS011;21993;42.672;23.296;2023-02-28T15:03:45;17.53;;;8.50;;
35891;SDS011;21993;42.672;23.296;2023-02-28T15:06:14;18.57;;;9.60;;
35891;SDS011;21993;42.672;23.296;2023-02-28T15:08:42;22.50;;;9.20;;
35891;SDS011;21993;42.672;23.296;2023-02-28T15:11:18;20.30;;;8.90;;
35891;SDS011;21993;42.672;23.296;2023-02-28T15:13:48;22.43;;;9.13;;
35891;SDS011;21993;42.672;23.296;2023-02-28T15:16:20;23.57;;;10.90;;
35891;SDS011;21993;42.672;23.296;2023-02-28T15:21:18;24.10;;;10.17;;
35891;SDS011;21993;42.672;23.296;2023-02-28T15:23:51;22.60;;;9.73;;
35891;SDS011;21993;42.672;23.296;2023-02-28T15:26:20;21.60;;;9.23;;
35891;SDS011;21993;42.672;23.296;2023-02-28T15:29:00;18.60;;;9.17;;
35891;SDS011;21993;42.672;23.296;2023-02-28T15:31:34;17.20;;;9.03;;
35891;SDS011;21993;42.672;23.296;2023-02-28T15:34:06;19.13;;;9.53;;
35891;SDS011;21993;42.672;23.296;2023-02-28T15:36:42;14.83;;;9.27;;
35891;SDS011;21993;42.672;23.296;2023-02-28T15:39:25;24.07;;;8.17;;
35891;SDS011;21993;42.672;23.296;2023-02-28T15:41:52;19.27;;;8.70;;
35891;SDS011;21993;42.672;23.296;2023-02-28T15:44:36;20.90;;;9.17;;
35891;SDS011;21993;42.672;23.296;2023-02-28T15:47:03;14.03;;;7.77;;
35891;SDS011;21993;42.672;23.296;2023-02-28T15:49:52;18.27;;;7.67;;
35891;SDS011;21993;42.672;23.296;2023-02-28T15:52:19;18.83;;;8.47;;
35891;SDS011;21993;42.672;23.296;2023-02-28T15:54:49;20.47;;;7.93;;
35891;SDS011;21993;42.672;23.296;2023-02-28T15:57:20;15.37;;;7.93;;
35891;SDS011;21993;42.672;23.296;2023-02-28T15:59:52;17.87;;;8.60;;
35891;SDS011;21993;42.672;23.296;2023-02-28T16:02:21;13.60;;;7.67;;
35891;SDS011;21993;42.672;23.296;2023-02-28T16:07:35;17.70;;;7.47;;
35891;SDS011;21993;42.672;23.296;2023-02-28T16:10:06;16.33;;;7.17;;
35891;SDS011;21993;42.672;23.296;2023-02-28T16:12:33;11.70;;;7.10;;
35891;SDS011;21993;42.672;23.296;2023-02-28T16:15:02;14.37;;;7.63;;
35891;SDS011;21993;42.672;23.296;2023-02-28T16:17:35;13.27;;;7.60;;
35891;SDS011;21993;42.672;23.296;2023-02-28T16:22:57;13.07;;;8.20;;
35891;SDS011;21993;42.672;23.296;2023-02-28T16:25:33;11.83;;;7.77;;
35891;SDS011;21993;42.672;23.296;2023-02-28T16:28:06;13.77;;;8.00;;
35891;SDS011;21993;42.672;23.296;2023-02-28T16:30:37;15.60;;;7.63;;
35891;SDS011;21993;42.672;23.296;2023-02-28T16:33:02;15.33;;;8.40;;
35891;SDS011;21993;42.672;23.296;2023-02-28T16:35:28;12.13;;;7.70;;
35891;SDS011;21993;42.672;23.296;2023-02-28T16:37:53;14.03;;;8.17;;
35891;SDS011;21993;42.672;23.296;2023-02-28T16:40:21;12.13;;;7.43;;
35891;SDS011;21993;42.672;23.296;2023-02-28T16:42:52;12.80;;;7.60;;
35891;SDS011;21993;42.672;23.296;2023-02-28T16:45:22;13.93;;;7.47;;
35891;SDS011;21993;42.672;23.296;2023-02-28T16:47:49;11.03;;;7.23;;
35891;SDS011;21993;42.672;23.296;2023-02-28T16:52:42;11.20;;;6.30;;
35891;SDS011;21993;42.672;23.296;2023-02-28T16:55:08;13.13;;;6.90;;
35891;SDS011;21993;42.672;23.296;2023-02-28T16:57:34;10.83;;;7.20;;
35891;SDS011;21993;42.672;23.296;2023-02-28T17:00:00;10.17;;;6.37;;
35891;SDS011;21993;42.672;23.296;2023-02-28T17:02:26;13.93;;;6.40;;
35891;SDS011;21993;42.672;23.296;2023-02-28T17:04:51;19.13;;;6.80;;